createdAt,value
2022-10-15T00:01:20.558Z,19.40
2022-10-15T00:03:47.355Z,19.40
2022-10-15T00:06:15.510Z,19.40
2022-10-15T00:08:42.952Z,19.30
2022-10-15T00:11:11.354Z,19.30
2022-10-15T00:13:38.378Z,19.40
2022-10-15T00:16:06.784Z,19.40
2022-10-15T00:18:33.398Z,19.30
2022-10-15T00:21:00.019Z,19.30
2022-10-15T00:23:26.640Z,19.30
2022-10-15T00:26:07.477Z,19.30
2022-10-15T00:28:34.678Z,19.30
2022-10-15T00:31:05.305Z,19.30
2022-10-15T00:33:31.990Z,19.30
2022-10-15T00:35:59.500Z,19.30
2022-10-15T00:38:26.239Z,19.30
2022-10-15T00:40:52.895Z,19.30
2022-10-15T00:43:35.116Z,19.30
2022-10-15T00:46:01.724Z,19.30
2022-10-15T00:48:28.871Z,19.30
2022-10-15T00:50:55.610Z,19.30
2022-10-15T00:53:22.779Z,19.30
2022-10-15T00:55:51.157Z,19.90
2022-10-15T00:58:22.458Z,19.30
2022-10-15T01:00:49.236Z,19.30
2022-10-15T01:03:15.885Z,19.30
2022-10-15T01:05:42.979Z,19.30
2022-10-15T01:08:09.583Z,19.30
2022-10-15T01:10:55.194Z,19.30
2022-10-15T01:13:30.886Z,19.30
2022-10-15T01:16:03.033Z,19.30
2022-10-15T01:18:29.675Z,19.30
2022-10-15T01:21:11.976Z,19.30
2022-10-15T01:23:48.820Z,19.30
2022-10-15T01:26:30.710Z,19.30
2022-10-15T01:29:17.720Z,19.30
2022-10-15T01:31:44.324Z,19.30
2022-10-15T01:34:40.357Z,19.30
2022-10-15T01:37:14.035Z,19.30
2022-10-15T01:39:43.066Z,19.30
2022-10-15T01:42:15.698Z,19.30
2022-10-15T01:44:44.556Z,19.30
2022-10-15T01:47:17.458Z,19.30
2022-10-15T01:49:45.788Z,19.30
2022-10-15T01:52:24.008Z,19.40
2022-10-15T01:54:52.189Z,19.30
2022-10-15T01:57:20.599Z,19.30
2022-10-15T01:59:47.584Z,19.30
2022-10-15T02:02:14.244Z,19.20
2022-10-15T02:04:40.884Z,19.30
2022-10-15T02:07:40.038Z,19.30
2022-10-15T02:10:26.281Z,19.30
2022-10-15T02:13:05.452Z,19.30
2022-10-15T02:16:01.391Z,19.30
2022-10-15T02:18:28.007Z,19.30
2022-10-15T02:20:57.728Z,19.20
2022-10-15T02:23:31.737Z,19.30
2022-10-15T02:25:58.543Z,19.20
2022-10-15T02:28:26.384Z,19.30
2022-10-15T02:30:53.432Z,19.20
2022-10-15T02:33:21.239Z,19.20
2022-10-15T02:35:48.499Z,19.30
2022-10-15T02:38:17.262Z,19.30
2022-10-15T02:40:44.403Z,19.20
2022-10-15T02:43:13.003Z,19.20
2022-10-15T02:45:39.659Z,19.20
2022-10-15T02:48:06.644Z,19.20
2022-10-15T02:50:33.283Z,19.30
2022-10-15T02:53:00.900Z,19.20
2022-10-15T02:55:27.490Z,19.60
2022-10-15T02:57:54.119Z,19.70
2022-10-15T03:00:20.784Z,19.20
2022-10-15T03:02:47.430Z,19.30
2022-10-15T03:05:14.639Z,19.20
2022-10-15T03:07:41.498Z,19.20
2022-10-15T03:10:08.245Z,19.20
2022-10-15T03:12:34.967Z,19.20
2022-10-15T03:15:01.932Z,19.40
2022-10-15T03:17:28.576Z,19.30
2022-10-15T03:19:55.196Z,19.20
2022-10-15T03:22:21.850Z,19.20
2022-10-15T03:24:48.463Z,19.20
2022-10-15T03:27:15.204Z,19.20
2022-10-15T03:29:41.837Z,20.00
2022-10-15T03:32:08.460Z,19.20
2022-10-15T03:34:35.143Z,19.20
2022-10-15T03:37:01.759Z,19.20
2022-10-15T03:39:28.381Z,19.20
2022-10-15T03:41:55.047Z,19.80
2022-10-15T03:44:21.744Z,19.30
2022-10-15T03:46:48.355Z,19.20
2022-10-15T03:49:14.971Z,19.20
2022-10-15T03:51:41.620Z,19.20
2022-10-15T03:54:08.310Z,19.30
2022-10-15T03:56:34.931Z,19.30
2022-10-15T03:59:01.536Z,19.30
2022-10-15T04:01:28.240Z,19.40
2022-10-15T04:03:55.596Z,19.40
2022-10-15T04:06:22.242Z,19.40
2022-10-15T04:08:48.859Z,19.40
2022-10-15T04:11:15.638Z,19.40
2022-10-15T04:13:42.265Z,19.40
2022-10-15T04:16:08.986Z,19.40
2022-10-15T04:18:35.611Z,19.40
2022-10-15T04:21:02.234Z,19.50
2022-10-15T04:23:28.947Z,19.50
2022-10-15T04:25:58.444Z,19.50
2022-10-15T04:28:25.149Z,19.50
2022-10-15T04:30:55.511Z,19.50
2022-10-15T04:33:22.222Z,19.50
2022-10-15T04:35:57.372Z,19.50
2022-10-15T04:38:24.012Z,19.50
2022-10-15T04:40:57.639Z,19.50
2022-10-15T04:43:24.368Z,19.50
2022-10-15T04:45:51.056Z,19.50
2022-10-15T04:48:17.684Z,19.50
2022-10-15T04:50:44.585Z,19.50
2022-10-15T04:53:11.212Z,19.50
2022-10-15T04:55:37.823Z,19.50
2022-10-15T04:58:04.585Z,19.80
2022-10-15T05:00:31.243Z,19.50
2022-10-15T05:02:57.869Z,19.70
2022-10-15T05:05:24.576Z,19.50
2022-10-15T05:07:51.224Z,19.50
2022-10-15T05:10:17.810Z,19.50
2022-10-15T05:12:44.512Z,19.50
2022-10-15T05:15:11.272Z,19.50
2022-10-15T05:17:37.899Z,19.50
2022-10-15T05:20:04.800Z,19.50
2022-10-15T05:22:31.653Z,19.50
2022-10-15T05:24:58.320Z,20.20
2022-10-15T05:27:24.961Z,19.50
2022-10-15T05:29:51.603Z,19.50
2022-10-15T05:34:44.897Z,19.60
2022-10-15T05:37:11.547Z,19.50
2022-10-15T05:39:39.232Z,19.50
2022-10-15T05:42:05.850Z,19.60
2022-10-15T05:44:32.511Z,19.60
2022-10-15T05:46:59.101Z,19.60
2022-10-15T05:49:25.727Z,19.60
2022-10-15T05:54:22.024Z,19.60
2022-10-15T05:56:48.728Z,19.60
2022-10-15T05:59:15.384Z,19.50
2022-10-15T06:01:43.114Z,19.50
2022-10-15T06:04:10.132Z,19.50
2022-10-15T06:06:36.822Z,19.60
2022-10-15T06:09:03.585Z,19.60
2022-10-15T06:11:30.248Z,19.70
2022-10-15T06:13:56.964Z,19.80
2022-10-15T06:16:24.178Z,19.90
2022-10-15T06:18:54.083Z,20.00
2022-10-15T06:21:21.039Z,20.00
2022-10-15T06:23:47.781Z,20.00
2022-10-15T06:26:14.520Z,19.90
2022-10-15T06:28:41.186Z,19.90
2022-10-15T06:31:08.255Z,19.90
2022-10-15T06:33:35.443Z,19.90
2022-10-15T06:36:03.134Z,20.50
2022-10-15T06:38:29.866Z,19.80
2022-10-15T06:40:56.560Z,19.80
2022-10-15T06:43:23.704Z,19.80
2022-10-15T06:45:50.796Z,19.80
2022-10-15T06:48:17.887Z,19.80
2022-10-15T06:50:44.660Z,19.80
2022-10-15T07:07:08.857Z,19.70
2022-10-15T07:09:36.698Z,19.50
2022-10-15T07:12:03.455Z,19.80
2022-10-15T07:14:30.200Z,19.70
2022-10-15T07:16:57.592Z,19.70
2022-10-15T07:19:24.404Z,19.70
2022-10-15T07:21:51.150Z,19.70
2022-10-15T07:24:18.091Z,19.70
2022-10-15T07:26:44.748Z,19.70
2022-10-15T07:29:11.397Z,19.70
2022-10-15T07:31:38.153Z,19.70
2022-10-15T07:34:05.841Z,20.10
2022-10-15T07:36:32.511Z,20.30
2022-10-15T07:38:59.116Z,19.70
2022-10-15T07:41:25.908Z,19.60
2022-10-15T07:43:53.733Z,19.90
2022-10-15T07:46:20.495Z,19.70
2022-10-15T07:48:47.279Z,19.70
2022-10-15T07:51:14.265Z,19.70
2022-10-15T07:53:41.007Z,20.20
2022-10-15T07:56:08.652Z,19.70
2022-10-15T07:58:35.865Z,19.70
2022-10-15T08:01:03.064Z,19.70
2022-10-15T08:03:30.609Z,19.60
2022-10-15T08:05:59.668Z,19.60
2022-10-15T08:08:26.330Z,19.70
2022-10-15T08:10:53.356Z,19.90
2022-10-15T08:13:20.039Z,19.40
2022-10-15T08:16:01.931Z,19.70
2022-10-15T08:18:28.715Z,19.40
2022-10-15T08:20:58.231Z,19.70
2022-10-15T08:23:25.013Z,20.20
2022-10-15T08:25:51.678Z,19.60
2022-10-15T08:28:18.402Z,19.70
2022-10-15T08:30:45.108Z,20.00
2022-10-15T08:33:12.521Z,19.70
2022-10-15T08:35:41.067Z,20.70
2022-10-15T08:38:07.748Z,19.70
2022-10-15T08:40:34.435Z,20.80
2022-10-15T08:43:01.589Z,19.70
2022-10-15T08:45:38.719Z,19.70
2022-10-15T08:48:14.228Z,19.70
2022-10-15T08:50:42.749Z,19.70
2022-10-15T08:53:12.495Z,19.60
2022-10-15T08:55:40.132Z,19.70
2022-10-15T08:58:14.016Z,19.70
2022-10-15T09:00:46.189Z,19.70
2022-10-15T09:03:30.592Z,19.70
2022-10-15T09:06:02.673Z,19.80
2022-10-15T09:08:49.590Z,19.80
2022-10-15T09:11:20.828Z,20.10
2022-10-15T09:13:48.455Z,19.60
2022-10-15T09:16:20.038Z,19.80
2022-10-15T09:18:48.182Z,19.30
2022-10-15T09:21:16.852Z,19.80
2022-10-15T09:23:44.335Z,19.80
2022-10-15T09:26:24.132Z,20.30
2022-10-15T09:28:53.990Z,19.80
2022-10-15T09:31:23.728Z,19.80
2022-10-15T09:34:01.373Z,19.80
2022-10-15T09:36:33.883Z,19.80
2022-10-15T09:39:00.578Z,21.00
2022-10-15T09:41:30.310Z,19.80
2022-10-15T09:43:58.497Z,19.90
2022-10-15T09:46:25.234Z,20.10
2022-10-15T09:49:09.616Z,19.90
2022-10-15T09:51:40.458Z,19.80
2022-10-15T09:54:18.629Z,19.90
2022-10-15T09:56:47.772Z,19.90
2022-10-15T09:59:18.709Z,20.30
2022-10-15T10:02:24.643Z,19.90
2022-10-15T10:04:52.887Z,19.90
2022-10-15T10:07:32.713Z,19.90
2022-10-15T10:10:19.654Z,19.90
2022-10-15T10:12:46.461Z,20.00
2022-10-15T10:15:21.955Z,19.90
2022-10-15T10:17:55.505Z,19.90
2022-10-15T10:20:23.536Z,19.90
2022-10-15T10:22:54.336Z,19.90
2022-10-15T10:25:27.218Z,20.00
2022-10-15T10:27:54.784Z,19.90
2022-10-15T10:30:21.513Z,19.90
2022-10-15T10:32:48.461Z,19.90
2022-10-15T10:35:22.285Z,19.90
2022-10-15T10:37:49.151Z,19.90
2022-10-15T10:40:29.112Z,20.20
2022-10-15T10:43:16.030Z,19.90
2022-10-15T10:45:55.116Z,19.90
2022-10-15T10:48:23.677Z,19.90
2022-10-15T10:51:01.850Z,20.00
2022-10-15T10:53:28.532Z,19.90
2022-10-15T10:55:56.028Z,19.90
2022-10-15T10:58:26.402Z,19.90
2022-10-15T11:00:55.609Z,19.90
2022-10-15T11:03:33.311Z,19.90
2022-10-15T11:06:12.331Z,19.90
2022-10-15T11:08:47.967Z,19.90
2022-10-15T11:11:14.601Z,19.90
2022-10-15T11:13:48.987Z,19.90
2022-10-15T11:16:22.648Z,19.90
2022-10-15T11:18:55.618Z,20.10
2022-10-15T11:21:40.882Z,19.90
2022-10-15T11:24:16.797Z,19.90
2022-10-15T11:26:52.451Z,19.90
2022-10-15T11:29:34.228Z,20.40
2022-10-15T11:32:17.301Z,19.90
2022-10-15T11:35:00.061Z,19.90
2022-10-15T11:37:26.750Z,19.90
2022-10-15T11:40:06.119Z,19.90
2022-10-15T11:42:42.050Z,19.90
2022-10-15T11:45:15.079Z,19.90
2022-10-15T11:47:54.308Z,19.90
2022-10-15T11:50:23.740Z,19.90
2022-10-15T11:52:53.477Z,19.90
2022-10-15T11:55:27.956Z,19.90
2022-10-15T11:57:59.054Z,19.90
2022-10-15T12:00:28.597Z,20.70
2022-10-15T12:02:55.971Z,19.90
2022-10-15T12:05:35.089Z,20.10
2022-10-15T12:10:34.510Z,19.90
2022-10-15T12:13:10.504Z,20.00
2022-10-15T12:16:09.855Z,20.10
2022-10-15T12:18:40.788Z,20.20
2022-10-15T12:21:27.004Z,20.20
2022-10-15T12:23:53.642Z,20.20
2022-10-15T12:26:23.450Z,20.30
2022-10-15T12:28:54.412Z,20.20
2022-10-15T12:31:22.475Z,20.20
2022-10-15T12:33:49.124Z,20.20
2022-10-15T12:36:18.919Z,20.20
2022-10-15T12:38:58.019Z,20.20
2022-10-15T12:41:39.350Z,20.20
2022-10-15T12:44:15.302Z,20.20
2022-10-15T12:46:42.193Z,20.10
2022-10-15T12:49:26.999Z,21.50
2022-10-15T12:51:56.366Z,20.10
2022-10-15T12:54:35.593Z,20.10
2022-10-15T12:57:05.021Z,20.10
2022-10-15T12:59:43.864Z,21.30
2022-10-15T13:02:33.506Z,20.10
2022-10-15T13:05:01.464Z,20.10
2022-10-15T13:07:28.312Z,20.10
2022-10-15T13:09:55.471Z,20.80
2022-10-15T13:12:24.300Z,20.10
2022-10-15T13:14:55.271Z,20.60
2022-10-15T13:17:22.586Z,20.40
2022-10-15T13:19:56.037Z,20.10
2022-10-15T13:22:24.511Z,20.10
2022-10-15T13:24:51.844Z,20.10
2022-10-15T13:27:23.341Z,20.10
2022-10-15T13:30:04.407Z,20.10
2022-10-15T13:32:32.447Z,20.10
2022-10-15T13:35:02.485Z,20.10
2022-10-15T13:37:34.409Z,20.10
2022-10-15T13:40:06.532Z,20.10
2022-10-15T13:42:34.866Z,20.10
2022-10-15T13:45:03.198Z,20.10
2022-10-15T13:47:33.169Z,20.10
2022-10-15T13:50:18.754Z,20.10
2022-10-15T13:52:48.085Z,20.10
2022-10-15T13:55:19.572Z,20.70
2022-10-15T13:57:50.045Z,20.00
2022-10-15T14:00:24.942Z,20.10
2022-10-15T14:03:08.166Z,20.00
2022-10-15T14:05:34.854Z,20.00
2022-10-15T14:08:01.837Z,20.00
2022-10-15T14:10:28.614Z,20.00
2022-10-15T14:12:55.291Z,20.00
2022-10-15T14:15:57.886Z,20.10
2022-10-15T14:18:35.897Z,20.10
2022-10-15T14:21:02.967Z,20.10
2022-10-15T14:23:29.891Z,20.10
2022-10-15T14:26:05.780Z,20.10
2022-10-15T14:28:33.726Z,20.80
2022-10-15T14:31:01.068Z,20.00
2022-10-15T14:33:33.872Z,20.00
2022-10-15T14:36:08.833Z,20.00
2022-10-15T14:38:35.883Z,20.00
2022-10-15T14:41:21.316Z,20.00
2022-10-15T14:44:00.103Z,20.00
2022-10-15T14:46:29.844Z,20.00
2022-10-15T14:48:56.723Z,20.00
2022-10-15T14:51:24.897Z,20.00
2022-10-15T14:53:52.459Z,20.00
2022-10-15T14:56:20.444Z,20.00
2022-10-15T14:58:52.123Z,20.00
2022-10-15T15:01:19.892Z,20.20
2022-10-15T15:03:48.816Z,20.00
2022-10-15T15:06:15.753Z,20.00
2022-10-15T15:08:42.487Z,20.00
2022-10-15T15:11:13.624Z,20.00
2022-10-15T15:13:41.664Z,20.00
2022-10-15T15:16:15.373Z,20.00
2022-10-15T15:18:43.895Z,20.00
2022-10-15T15:21:12.557Z,20.50
2022-10-15T15:23:39.280Z,20.00
2022-10-15T15:26:06.027Z,20.00
2022-10-15T15:28:32.693Z,20.00
2022-10-15T15:31:05.481Z,20.00
2022-10-15T15:33:32.442Z,20.00
2022-10-15T15:36:05.148Z,21.10
2022-10-15T15:38:31.966Z,20.00
2022-10-15T15:41:12.519Z,20.00
2022-10-15T15:43:39.189Z,20.00
2022-10-15T15:46:06.123Z,20.00
2022-10-15T15:48:32.778Z,20.00
2022-10-15T15:51:03.866Z,20.00
2022-10-15T15:53:30.534Z,20.00
2022-10-15T15:55:57.308Z,20.00
2022-10-15T15:58:24.043Z,20.60
2022-10-15T16:00:50.696Z,20.40
2022-10-15T16:03:17.369Z,20.00
2022-10-15T16:05:44.108Z,20.00
2022-10-15T16:08:12.835Z,20.00
2022-10-15T16:10:39.582Z,20.00
2022-10-15T16:13:06.257Z,20.00
2022-10-15T16:15:32.917Z,20.50
2022-10-15T16:17:59.635Z,20.60
2022-10-15T16:20:26.307Z,20.00
2022-10-15T16:22:53.310Z,20.00
2022-10-15T16:25:20.585Z,20.00
2022-10-15T16:27:51.807Z,21.20
2022-10-15T16:30:19.250Z,20.40
2022-10-15T16:32:46.027Z,20.00
2022-10-15T16:35:12.718Z,20.00
2022-10-15T16:37:39.601Z,20.60
2022-10-15T16:40:06.603Z,20.00
2022-10-15T16:42:33.275Z,20.00
2022-10-15T16:44:59.954Z,20.90
2022-10-15T16:47:27.088Z,20.00
2022-10-15T16:49:55.495Z,20.00
2022-10-15T16:52:22.511Z,20.00
2022-10-15T16:54:49.347Z,20.00
2022-10-15T16:57:16.047Z,20.00
2022-10-15T16:59:42.755Z,20.00
2022-10-15T17:02:09.910Z,20.00
2022-10-15T17:04:36.591Z,20.00
2022-10-15T17:07:03.229Z,20.00
2022-10-15T17:09:31.075Z,20.00
2022-10-15T17:11:57.711Z,20.00
2022-10-15T17:14:25.180Z,20.00
2022-10-15T17:16:52.581Z,20.00
2022-10-15T17:19:20.666Z,20.00
2022-10-15T17:21:47.404Z,20.00
2022-10-15T17:24:14.959Z,20.00
2022-10-15T17:26:42.311Z,20.50
2022-10-15T17:29:10.607Z,20.00
2022-10-15T17:31:37.526Z,20.00
2022-10-15T17:34:06.059Z,20.00
2022-10-15T17:36:36.034Z,20.00
2022-10-15T17:39:03.303Z,20.00
2022-10-15T17:41:30.502Z,20.00
2022-10-15T17:43:57.788Z,20.00
2022-10-15T17:46:25.714Z,20.00
2022-10-15T17:48:53.135Z,20.00
2022-10-15T17:51:22.011Z,20.00
2022-10-15T17:53:51.567Z,20.30
2022-10-15T17:56:19.532Z,20.00
2022-10-15T17:58:46.399Z,20.00
2022-10-15T18:01:14.045Z,20.00
2022-10-15T18:03:42.586Z,19.90
2022-10-15T18:06:10.247Z,20.00
2022-10-15T18:08:36.904Z,20.00
2022-10-15T18:11:04.026Z,20.00
2022-10-15T18:13:30.863Z,20.00
2022-10-15T18:15:57.623Z,20.00
2022-10-15T18:18:24.460Z,20.00
2022-10-15T18:20:51.284Z,20.00
2022-10-15T18:23:18.302Z,20.50
2022-10-15T18:25:45.256Z,20.50
2022-10-15T18:28:12.059Z,20.10
2022-10-15T18:30:39.638Z,20.10
2022-10-15T18:33:06.931Z,20.20
2022-10-15T18:35:40.427Z,20.30
2022-10-15T18:38:07.185Z,20.30
2022-10-15T18:40:40.078Z,20.20
2022-10-15T18:43:07.716Z,20.10
2022-10-15T18:45:35.883Z,20.30
2022-10-15T18:48:02.889Z,20.30
2022-10-15T18:50:29.701Z,20.20
2022-10-15T18:52:56.436Z,20.20
2022-10-15T18:55:23.184Z,20.20
2022-10-15T18:57:49.832Z,20.20
2022-10-15T19:00:16.516Z,20.20
2022-10-15T19:02:43.153Z,20.20
2022-10-15T19:05:09.913Z,20.20
2022-10-15T19:07:36.599Z,20.60
2022-10-15T19:10:03.676Z,20.20
2022-10-15T19:12:30.417Z,20.20
2022-10-15T19:14:57.064Z,20.10
2022-10-15T19:17:23.695Z,20.20
2022-10-15T19:19:50.981Z,20.30
2022-10-15T19:22:18.044Z,20.20
2022-10-15T19:24:44.762Z,20.20
2022-10-15T19:27:11.673Z,20.30
2022-10-15T19:29:39.355Z,20.60
2022-10-15T19:32:06.072Z,20.10
2022-10-15T19:34:35.269Z,20.10
2022-10-15T19:37:01.985Z,20.10
2022-10-15T19:39:28.869Z,20.10
2022-10-15T19:41:55.579Z,20.10
2022-10-15T19:44:25.478Z,20.10
2022-10-15T19:46:52.893Z,20.20
2022-10-15T19:49:19.679Z,20.10
2022-10-15T19:51:47.159Z,20.10
2022-10-15T19:54:14.373Z,20.10
2022-10-15T19:56:41.119Z,20.10
2022-10-15T19:59:07.842Z,20.10
2022-10-15T20:01:34.575Z,20.10
2022-10-15T20:04:05.859Z,20.00
2022-10-15T20:06:33.698Z,20.00
2022-10-15T20:09:02.235Z,20.00
2022-10-15T20:11:29.195Z,20.00
2022-10-15T20:13:55.881Z,20.00
2022-10-15T20:16:23.375Z,20.00
2022-10-15T20:18:50.896Z,20.00
2022-10-15T20:21:17.551Z,20.50
2022-10-15T20:23:44.693Z,20.00
2022-10-15T20:26:12.782Z,19.90
2022-10-15T20:28:40.179Z,20.20
2022-10-15T20:31:07.635Z,19.90
2022-10-15T20:33:34.604Z,19.90
2022-10-15T20:36:08.168Z,19.90
2022-10-15T20:38:35.389Z,19.90
2022-10-15T20:41:15.463Z,19.90
2022-10-15T20:43:42.622Z,19.90
2022-10-15T20:46:11.675Z,19.90
2022-10-15T20:48:39.956Z,20.20
2022-10-15T20:51:07.715Z,20.00
2022-10-15T20:53:34.780Z,19.90
2022-10-15T20:56:02.005Z,20.10
2022-10-15T20:58:29.133Z,19.90
2022-10-15T21:00:56.041Z,19.60
2022-10-15T21:03:22.759Z,20.40
2022-10-15T21:05:49.451Z,20.20
2022-10-15T21:08:16.160Z,19.80
2022-10-15T21:10:43.028Z,20.20
2022-10-15T21:13:09.707Z,19.80
2022-10-15T21:15:36.445Z,19.80
2022-10-15T21:18:03.112Z,19.80
2022-10-15T21:20:29.917Z,19.80
2022-10-15T21:22:56.751Z,19.80
2022-10-15T21:25:23.463Z,19.70
2022-10-15T21:27:50.195Z,20.20
2022-10-15T21:30:16.883Z,19.80
2022-10-15T21:32:43.568Z,19.80
2022-10-15T21:35:10.247Z,19.80
2022-10-15T21:37:37.720Z,20.40
2022-10-15T21:40:04.800Z,19.80
2022-10-15T21:42:31.556Z,19.80
2022-10-15T21:44:58.569Z,19.80
2022-10-15T21:47:25.655Z,20.40
2022-10-15T21:49:52.608Z,19.80
2022-10-15T21:52:19.284Z,20.00
2022-10-15T21:54:46.017Z,19.80
2022-10-15T21:57:12.667Z,19.80
2022-10-15T21:59:39.427Z,20.50
2022-10-15T22:02:06.232Z,19.80
2022-10-15T22:04:34.515Z,19.80
2022-10-15T22:07:01.503Z,19.80
2022-10-15T22:09:28.184Z,19.80
2022-10-15T22:11:54.817Z,19.80
2022-10-15T22:14:21.478Z,19.80
2022-10-15T22:16:48.108Z,19.70
2022-10-15T22:19:16.127Z,20.20
2022-10-15T22:21:42.810Z,19.80
2022-10-15T22:24:14.933Z,19.70
2022-10-15T22:26:42.876Z,19.70
2022-10-15T22:29:14.997Z,19.80
2022-10-15T22:31:41.640Z,19.70
2022-10-15T22:34:08.264Z,19.70
2022-10-15T22:36:34.903Z,20.30
2022-10-15T22:39:03.385Z,19.70
2022-10-15T22:41:31.154Z,19.70
2022-10-15T22:43:57.868Z,19.70
2022-10-15T22:46:24.815Z,19.70
2022-10-15T22:48:51.456Z,20.30
2022-10-15T22:51:18.103Z,19.70
2022-10-15T22:53:44.906Z,19.70
2022-10-15T22:56:12.665Z,19.70
2022-10-15T22:58:39.600Z,19.70
2022-10-15T23:01:11.515Z,19.80
2022-10-15T23:03:38.784Z,19.70
2022-10-15T23:06:05.895Z,19.70
2022-10-15T23:08:32.898Z,19.70
2022-10-15T23:11:10.251Z,19.70
2022-10-15T23:13:37.744Z,19.70
2022-10-15T23:16:08.473Z,19.70
2022-10-15T23:18:35.214Z,19.70
2022-10-15T23:21:05.519Z,19.70
2022-10-15T23:23:32.568Z,19.70
2022-10-15T23:25:59.240Z,19.70
2022-10-15T23:28:25.952Z,19.70
2022-10-15T23:30:52.652Z,20.20
2022-10-15T23:33:19.291Z,19.70
2022-10-15T23:35:46.229Z,19.70
2022-10-15T23:38:13.792Z,19.70
2022-10-15T23:40:40.501Z,19.70
2022-10-15T23:43:07.182Z,19.70
2022-10-15T23:45:35.765Z,19.90
2022-10-15T23:48:04.862Z,19.70
2022-10-15T23:50:35.306Z,19.70
2022-10-15T23:53:02.044Z,19.70
2022-10-15T23:55:28.756Z,19.70
2022-10-15T23:57:55.448Z,19.70
